Time;durP1;ratioP1;P1;durP2;ratioP2;P2;SDS_P1;SDS_P2;PMS_P1;PMS_P2;Temp;Humidity;BMP_temperature;BMP_pressure;BME280_temperature;BME280_humidity;BME280_pressure;Samples;Min_cycle;Max_cycle;Signal;HPM_P1;HPM_P2
2021/01/03 00:00:27;;;;;;;16.87;11.90;;;2.00;99.90;;;;;;4869053;29;20226;-87
2021/01/03 00:02:53;;;;;;;15.33;10.37;;;2.00;99.90;;;;;;4867890;29;20533;-86
2021/01/03 00:05:23;;;;;;;16.27;11.10;;;2.00;99.90;;;;;;4867419;29;20457;-88
2021/01/03 00:07:49;;;;;;;17.37;11.97;;;1.90;99.90;;;;;;4865124;29;20482;-87
2021/01/03 00:10:15;;;;;;;15.37;11.00;;;1.90;99.90;;;;;;4864490;29;20914;-87
2021/01/03 00:12:44;;;;;;;16.90;11.13;;;1.90;99.90;;;;;;4870532;29;20438;-87
2021/01/03 00:15:21;;;;;;;14.30;10.80;;;1.80;99.90;;;;;;4871182;29;20461;-88
2021/01/03 00:17:47;;;;;;;15.17;11.10;;;1.90;99.90;;;;;;4866766;29;20840;-87
2021/01/03 00:20:27;;;;;;;13.77;10.73;;;1.90;99.90;;;;;;4869819;29;20850;-87
2021/01/03 00:22:59;;;;;;;14.40;10.63;;;1.90;99.90;;;;;;4866182;29;20466;-86
2021/01/03 00:25:33;;;;;;;13.40;9.40;;;1.90;99.90;;;;;;4866184;29;20843;-87
2021/01/03 00:27:59;;;;;;;16.90;10.47;;;1.90;99.90;;;;;;4865618;29;20477;-87
2021/01/03 00:30:27;;;;;;;13.97;11.03;;;1.90;99.90;;;;;;4866952;29;20490;-87
2021/01/03 00:32:54;;;;;;;14.67;10.20;;;1.90;99.90;;;;;;4869833;29;20202;-88
2021/01/03 00:35:25;;;;;;;14.13;10.27;;;1.80;99.90;;;;;;4869312;29;20490;-88
2021/01/03 00:37:51;;;;;;;13.50;9.93;;;1.80;99.90;;;;;;4863256;29;20449;-87
2021/01/03 00:40:20;;;;;;;14.03;10.20;;;1.80;99.90;;;;;;4867961;29;20818;-87
2021/01/03 00:42:46;;;;;;;13.30;9.43;;;1.70;99.90;;;;;;4868023;29;20761;-87
2021/01/03 00:45:13;;;;;;;13.03;9.17;;;1.80;99.90;;;;;;4867257;29;20473;-87
2021/01/03 00:47:39;;;;;;;12.63;9.00;;;1.80;99.90;;;;;;4863601;29;20470;-88
2021/01/03 00:50:06;;;;;;;12.57;9.73;;;1.80;99.90;;;;;;4869015;29;20454;-88
2021/01/03 00:52:32;;;;;;;13.10;9.60;;;1.80;99.90;;;;;;4868062;29;20205;-88
2021/01/03 00:55:00;;;;;;;12.30;9.20;;;1.80;99.90;;;;;;4866771;29;20470;-88
2021/01/03 00:57:26;;;;;;;12.43;9.03;;;1.90;99.90;;;;;;4863830;29;20190;-88
2021/01/03 00:59:51;;;;;;;12.50;9.20;;;1.80;99.90;;;;;;4867681;29;20481;-88
2021/01/03 01:02:17;;;;;;;10.90;8.67;;;1.80;99.90;;;;;;4868839;29;20270;-88
2021/01/03 01:04:43;;;;;;;12.50;8.43;;;1.80;99.90;;;;;;4865797;29;20196;-88
2021/01/03 01:07:09;;;;;;;12.03;8.53;;;1.80;99.90;;;;;;4853613;29;20280;-88
2021/01/03 01:09:35;;;;;;;11.17;8.40;;;1.80;99.90;;;;;;4866497;29;20234;-88
2021/01/03 01:12:01;;;;;;;11.73;9.13;;;1.80;99.90;;;;;;4863254;29;21093;-88
2021/01/03 01:14:27;;;;;;;11.10;8.33;;;1.80;99.90;;;;;;4869900;29;20435;-88
2021/01/03 01:16:52;;;;;;;11.90;9.43;;;1.70;99.90;;;;;;4867634;29;20189;-88
2021/01/03 01:19:19;;;;;;;12.90;8.63;;;1.70;99.90;;;;;;4867262;29;20672;-88
2021/01/03 01:21:45;;;;;;;11.43;8.37;;;1.70;99.90;;;;;;4866942;29;20206;-88
2021/01/03 01:24:11;;;;;;;12.90;8.90;;;1.70;99.90;;;;;;4865468;29;20813;-88
2021/01/03 01:26:37;;;;;;;13.60;9.47;;;1.60;99.90;;;;;;4867125;29;20206;-87
2021/01/03 01:29:03;;;;;;;11.40;8.20;;;1.70;99.90;;;;;;4864774;29;20446;-88
2021/01/03 01:31:31;;;;;;;13.27;9.13;;;1.70;99.90;;;;;;4866577;29;20217;-88
2021/01/03 01:36:38;;;;;;;11.20;8.20;;;1.70;99.90;;;;;;4869568;29;20877;-89
2021/01/03 01:39:04;;;;;;;10.77;8.23;;;1.70;99.90;;;;;;4865913;29;20550;-88
2021/01/03 01:41:30;;;;;;;11.57;8.90;;;1.70;99.90;;;;;;4861924;29;20222;-89
2021/01/03 01:43:56;;;;;;;13.30;9.97;;;1.80;99.90;;;;;;4866063;29;20505;-89
2021/01/03 01:46:52;;;;;;;10.70;8.30;;;1.70;99.90;;;;;;4864859;29;20765;-89
2021/01/03 01:49:29;;;;;;;10.50;8.00;;;1.70;99.90;;;;;;4869156;29;20645;-89
2021/01/03 01:51:55;;;;;;;10.60;8.57;;;1.70;99.90;;;;;;4867672;29;20481;-89
2021/01/03 01:54:32;;;;;;;13.40;9.07;;;1.60;99.90;;;;;;4867596;29;21823;-90
2021/01/03 01:57:34;;;;;;;10.90;8.43;;;1.60;99.90;;;;;;4867604;29;20451;-89
2021/01/03 02:00:24;;;;;;;11.00;8.93;;;1.60;99.90;;;;;;4870443;29;20461;-89
2021/01/03 02:03:05;;;;;;;11.53;9.27;;;1.50;99.90;;;;;;4870685;29;20824;-88
2021/01/03 02:06:21;;;;;;;11.47;8.70;;;1.50;99.90;;;;;;4872478;29;20453;-88
2021/01/03 02:09:40;;;;;;;11.30;8.93;;;1.50;99.90;;;;;;4870705;29;20560;-89
2021/01/03 02:12:14;;;;;;;12.07;8.53;;;1.40;99.90;;;;;;4870598;29;20553;-88
2021/01/03 02:14:43;;;;;;;14.37;9.07;;;1.30;99.90;;;;;;4869410;29;20442;-88
2021/01/03 02:17:09;;;;;;;12.37;8.80;;;1.40;99.90;;;;;;4869103;29;20529;-87
2021/01/03 02:19:36;;;;;;;12.13;9.00;;;1.40;99.90;;;;;;4872179;29;21048;-89
2021/01/03 02:22:45;;;;;;;13.23;9.07;;;1.30;99.90;;;;;;4870212;29;20204;-88
2021/01/03 02:25:15;;;;;;;9.93;8.60;;;1.30;99.90;;;;;;4859013;29;20485;-88
2021/01/03 02:28:18;;;;;;;12.80;9.57;;;1.30;99.90;;;;;;4869747;29;20465;-88
2021/01/03 02:30:49;;;;;;;12.80;8.93;;;1.30;99.90;;;;;;4864892;29;20483;-88
2021/01/03 02:33:36;;;;;;;11.70;8.77;;;1.30;99.90;;;;;;4869304;29;20464;-88
2021/01/03 02:36:39;;;;;;;12.60;8.90;;;1.40;99.90;;;;;;4870040;29;20474;-88
2021/01/03 02:39:41;;;;;;;12.80;9.47;;;1.30;99.90;;;;;;4828387;29;20502;-88
2021/01/03 02:42:21;;;;;;;11.10;9.03;;;1.20;99.90;;;;;;4868600;29;20481;-88
2021/01/03 02:44:47;;;;;;;14.87;9.67;;;1.20;99.90;;;;;;4867221;29;20468;-88
2021/01/03 02:47:16;;;;;;;11.87;9.10;;;1.20;99.90;;;;;;4867899;29;20454;-89
2021/01/03 02:49:42;;;;;;;12.80;9.33;;;1.30;99.90;;;;;;4869592;29;20194;-88
2021/01/03 02:52:13;;;;;;;11.03;8.47;;;1.20;99.90;;;;;;4869780;29;20511;-88
2021/01/03 02:54:38;;;;;;;11.90;10.03;;;1.20;99.90;;;;;;4870081;29;20192;-88
2021/01/03 02:57:05;;;;;;;15.37;11.37;;;1.10;99.90;;;;;;4871086;29;20469;-88
2021/01/03 02:59:30;;;;;;;15.17;10.60;;;1.10;99.90;;;;;;4869573;29;20182;-87
2021/01/03 03:01:57;;;;;;;13.77;10.00;;;1.00;99.90;;;;;;4870410;29;20458;-87
2021/01/03 03:04:22;;;;;;;13.60;10.03;;;1.10;99.90;;;;;;4838461;29;20199;-87
2021/01/03 03:06:58;;;;;;;17.80;10.70;;;1.10;99.90;;;;;;4870849;29;20486;-87
2021/01/03 03:09:47;;;;;;;14.40;10.63;;;1.00;99.90;;;;;;4849037;29;20442;-87
2021/01/03 03:12:43;;;;;;;15.50;10.53;;;1.10;99.90;;;;;;4866580;29;20512;-87
2021/01/03 03:15:34;;;;;;;13.00;9.70;;;1.00;99.90;;;;;;4869194;29;20457;-88
2021/01/03 03:18:02;;;;;;;13.07;9.70;;;1.00;99.90;;;;;;4865384;29;20458;-88
2021/01/03 03:20:28;;;;;;;13.77;10.27;;;1.00;99.90;;;;;;4863945;29;20462;-87
2021/01/03 03:22:54;;;;;;;12.10;10.03;;;1.00;99.90;;;;;;4871520;29;20454;-87
2021/01/03 03:25:22;;;;;;;15.43;11.10;;;1.00;99.90;;;;;;4869732;29;21445;-88
2021/01/03 03:27:49;;;;;;;16.07;10.83;;;1.00;99.90;;;;;;4868225;29;20466;-88
2021/01/03 03:30:19;;;;;;;14.40;9.80;;;1.00;99.90;;;;;;4871193;29;20496;-87
2021/01/03 03:32:50;;;;;;;16.60;10.77;;;1.00;99.90;;;;;;4868657;29;20494;-88
2021/01/03 03:35:17;;;;;;;15.90;11.73;;;0.90;99.90;;;;;;4870115;29;20450;-89
2021/01/03 03:37:43;;;;;;;16.10;11.03;;;1.00;99.90;;;;;;4871024;29;20524;-89
2021/01/03 03:40:09;;;;;;;15.87;10.53;;;1.00;99.90;;;;;;4868110;29;20486;-87
2021/01/03 03:42:35;;;;;;;16.50;10.83;;;0.90;99.90;;;;;;4867485;29;20564;-88
2021/01/03 03:45:00;;;;;;;14.43;11.20;;;1.00;99.90;;;;;;4869115;29;20465;-87
2021/01/03 03:47:27;;;;;;;14.60;11.37;;;1.00;99.90;;;;;;4869975;29;20192;-88
2021/01/03 03:49:55;;;;;;;17.30;11.40;;;0.90;99.90;;;;;;4867343;29;20209;-87
2021/01/03 03:52:20;;;;;;;13.13;10.00;;;0.90;99.90;;;;;;4869612;29;20474;-87
2021/01/03 03:54:46;;;;;;;14.40;10.73;;;1.00;99.90;;;;;;4868376;29;20541;-87
2021/01/03 03:57:11;;;;;;;15.13;11.10;;;1.00;99.90;;;;;;4868723;29;20205;-88
2021/01/03 03:59:39;;;;;;;14.83;10.97;;;1.00;99.90;;;;;;4869149;29;20711;-87
2021/01/03 04:02:05;;;;;;;16.80;11.47;;;0.90;99.90;;;;;;4869523;29;20285;-87
2021/01/03 04:04:31;;;;;;;16.33;11.20;;;0.80;99.90;;;;;;4868889;29;20461;-87
2021/01/03 04:06:56;;;;;;;14.63;10.87;;;0.90;99.90;;;;;;4869407;29;21126;-88
2021/01/03 04:09:22;;;;;;;17.93;12.30;;;1.00;99.90;;;;;;4869245;29;21082;-87
2021/01/03 04:11:49;;;;;;;15.00;11.27;;;0.90;99.90;;;;;;4867936;29;20576;-87
2021/01/03 04:14:19;;;;;;;13.37;10.63;;;0.90;99.90;;;;;;4867895;29;20190;-87
2021/01/03 04:16:57;;;;;;;15.87;11.67;;;0.90;99.90;;;;;;4869895;29;21967;-86
2021/01/03 04:19:25;;;;;;;17.63;12.17;;;0.90;99.90;;;;;;4867359;29;21306;-86
2021/01/03 04:22:03;;;;;;;16.93;11.33;;;0.80;99.90;;;;;;4866692;29;20465;-87
2021/01/03 04:24:29;;;;;;;16.70;11.80;;;0.90;99.90;;;;;;4868701;29;20434;-86
2021/01/03 04:27:07;;;;;;;16.67;11.07;;;1.00;99.90;;;;;;4870050;29;20562;-87
2021/01/03 04:29:33;;;;;;;16.20;12.30;;;0.90;99.90;;;;;;4866668;29;20457;-87
2021/01/03 04:32:01;;;;;;;21.07;12.90;;;0.80;99.90;;;;;;4869049;29;20869;-88
2021/01/03 04:34:27;;;;;;;16.80;11.93;;;0.80;99.90;;;;;;4868841;29;20519;-87
2021/01/03 04:36:55;;;;;;;19.37;12.63;;;0.80;99.90;;;;;;4867394;29;20443;-87
2021/01/03 04:39:22;;;;;;;17.77;13.37;;;0.80;99.90;;;;;;4867261;29;20478;-88
2021/01/03 04:41:50;;;;;;;16.50;11.97;;;0.80;99.90;;;;;;4867182;29;20470;-88
2021/01/03 04:44:38;;;;;;;16.17;12.10;;;0.80;99.90;;;;;;4867743;29;20453;-87
2021/01/03 04:47:19;;;;;;;18.03;12.87;;;0.80;99.90;;;;;;4865561;29;20462;-87
2021/01/03 04:49:52;;;;;;;15.90;11.60;;;0.80;99.90;;;;;;4866749;29;20442;-88
2021/01/03 04:52:39;;;;;;;17.40;12.20;;;0.90;99.90;;;;;;4868619;29;20481;-88
2021/01/03 04:55:14;;;;;;;16.90;12.47;;;0.90;99.90;;;;;;4866116;29;20446;-87
2021/01/03 04:57:47;;;;;;;18.83;13.17;;;0.80;99.90;;;;;;4867583;29;20564;-88
2021/01/03 05:00:16;;;;;;;17.50;12.60;;;0.90;99.90;;;;;;4867165;29;20518;-88
2021/01/03 05:03:12;;;;;;;20.43;14.10;;;0.90;99.90;;;;;;4882713;29;20504;-88
2021/01/03 05:05:52;;;;;;;16.97;12.30;;;0.90;99.90;;;;;;4863952;29;20457;-88
2021/01/03 05:08:41;;;;;;;18.30;13.20;;;0.90;99.90;;;;;;4866066;29;20869;-88
2021/01/03 05:11:14;;;;;;;16.53;12.50;;;0.90;99.90;;;;;;4865602;29;20470;-87
2021/01/03 05:13:43;;;;;;;15.80;11.17;;;0.90;99.90;;;;;;4866444;29;20503;-88
2021/01/03 05:16:16;;;;;;;16.50;11.30;;;1.00;99.90;;;;;;4868150;29;20594;-89
2021/01/03 05:18:41;;;;;;;19.30;12.50;;;0.90;99.90;;;;;;4852539;29;20557;-88
2021/01/03 05:21:14;;;;;;;18.73;12.60;;;0.90;99.90;;;;;;4869140;29;20632;-88
2021/01/03 05:24:05;;;;;;;18.40;12.80;;;0.90;99.90;;;;;;4850685;29;20201;-88
2021/01/03 05:26:40;;;;;;;21.73;13.97;;;0.90;99.90;;;;;;4867559;29;20494;-88
2021/01/03 05:29:11;;;;;;;20.10;13.73;;;0.90;99.90;;;;;;4867706;29;20955;-89
2021/01/03 05:31:38;;;;;;;21.37;13.40;;;0.90;99.90;;;;;;4851940;29;20577;-88
2021/01/03 05:34:09;;;;;;;16.43;11.70;;;0.90;99.90;;;;;;4856933;29;20545;-88
2021/01/03 05:36:45;;;;;;;25.70;13.13;;;1.00;99.90;;;;;;4871902;29;21069;-88
2021/01/03 05:39:29;;;;;;;18.73;13.43;;;1.00;99.90;;;;;;4870519;29;20454;-88
2021/01/03 05:42:07;;;;;;;21.60;13.43;;;0.90;99.90;;;;;;4868936;29;20485;-88
2021/01/03 05:44:47;;;;;;;20.17;13.00;;;1.00;99.90;;;;;;4870193;29;20458;-88
2021/01/03 05:47:33;;;;;;;17.87;12.07;;;0.90;99.90;;;;;;4868689;29;20445;-88
2021/01/03 05:50:20;;;;;;;18.53;13.40;;;0.90;99.90;;;;;;4872288;29;20504;-87
2021/01/03 05:52:57;;;;;;;18.10;12.73;;;1.00;99.90;;;;;;4871045;29;20445;-87
2021/01/03 05:55:29;;;;;;;22.70;13.97;;;1.00;99.90;;;;;;4873195;29;20581;-88
2021/01/03 05:58:22;;;;;;;20.10;13.23;;;1.00;99.90;;;;;;4869533;29;20473;-86
2021/01/03 06:00:49;;;;;;;17.20;11.80;;;1.00;99.90;;;;;;4869272;29;20486;-87
2021/01/03 06:03:19;;;;;;;18.03;12.80;;;1.00;99.90;;;;;;4870479;29;20457;-87
2021/01/03 06:05:49;;;;;;;18.73;12.30;;;1.00;99.90;;;;;;4871503;29;20442;-88
2021/01/03 06:08:24;;;;;;;21.23;13.77;;;0.90;99.90;;;;;;4866339;29;20450;-87
2021/01/03 06:10:51;;;;;;;19.83;13.37;;;0.90;99.90;;;;;;4868135;29;20533;-88
2021/01/03 06:13:22;;;;;;;17.40;11.70;;;0.90;99.90;;;;;;4868486;29;20497;-86
2021/01/03 06:15:57;;;;;;;20.93;13.43;;;0.90;99.90;;;;;;4866375;29;21365;-89
2021/01/03 06:18:45;;;;;;;24.17;15.00;;;0.90;99.90;;;;;;4869682;29;20455;-86
2021/01/03 06:21:29;;;;;;;20.87;14.50;;;0.80;99.90;;;;;;4869261;29;20488;-86
2021/01/03 06:24:18;;;;;;;22.30;13.33;;;0.90;99.90;;;;;;4868618;29;20493;-85
2021/01/03 06:26:51;;;;;;;21.63;13.93;;;1.00;99.90;;;;;;4868797;29;20525;-85
2021/01/03 06:29:26;;;;;;;19.27;14.13;;;1.00;99.90;;;;;;4868242;29;20541;-86
2021/01/03 06:32:26;;;;;;;20.90;14.50;;;1.00;99.90;;;;;;4869396;29;20505;-87
2021/01/03 06:35:15;;;;;;;21.37;13.40;;;1.00;99.90;;;;;;4866878;29;20468;-86
2021/01/03 06:38:33;;;;;;;21.57;14.97;;;0.90;99.90;;;;;;4869768;29;21148;-86
2021/01/03 06:41:18;;;;;;;21.17;14.60;;;0.80;99.90;;;;;;4814912;29;20488;-86
2021/01/03 06:44:14;;;;;;;25.30;16.27;;;0.90;99.90;;;;;;4866745;29;20466;-87
2021/01/03 06:47:22;;;;;;;22.03;14.10;;;0.90;99.90;;;;;;4868421;29;20474;-86
2021/01/03 06:50:03;;;;;;;20.10;14.20;;;0.90;99.90;;;;;;4867564;29;20454;-86
2021/01/03 06:52:56;;;;;;;22.93;14.33;;;1.00;99.90;;;;;;4865454;29;20625;-86
2021/01/03 06:55:34;;;;;;;21.50;14.23;;;1.00;99.90;;;;;;4871112;29;20481;-86
2021/01/03 06:58:33;;;;;;;18.50;12.60;;;1.00;99.90;;;;;;4866672;29;20469;-86
2021/01/03 07:01:07;;;;;;;18.20;14.00;;;1.10;99.90;;;;;;4867611;29;20525;-86
2021/01/03 07:03:34;;;;;;;21.20;14.50;;;1.00;99.90;;;;;;4867472;29;20437;-86
2021/01/03 07:06:06;;;;;;;25.40;15.77;;;0.90;99.90;;;;;;4865288;29;20462;-86
2021/01/03 07:08:46;;;;;;;24.13;16.17;;;0.80;99.90;;;;;;4868416;29;20554;-86
2021/01/03 07:11:46;;;;;;;23.80;15.40;;;0.90;99.90;;;;;;4866658;29;20829;-88
2021/01/03 07:14:31;;;;;;;22.33;14.80;;;0.90;99.90;;;;;;4869755;29;20459;-85
2021/01/03 07:16:59;;;;;;;22.47;15.87;;;0.90;99.90;;;;;;4867555;29;20449;-86
2021/01/03 07:19:31;;;;;;;22.90;15.70;;;0.90;99.90;;;;;;4868878;29;20462;-85
2021/01/03 07:22:21;;;;;;;21.37;15.30;;;1.00;99.90;;;;;;4869977;29;20450;-85
2021/01/03 07:24:50;;;;;;;22.83;16.37;;;1.00;99.90;;;;;;4866542;29;20450;-87
2021/01/03 07:27:25;;;;;;;23.77;15.23;;;0.90;99.90;;;;;;4868166;29;20462;-86
2021/01/03 07:29:56;;;;;;;23.47;16.60;;;0.90;99.90;;;;;;4867132;29;20461;-87
2021/01/03 07:32:37;;;;;;;20.03;14.40;;;0.90;99.90;;;;;;4868693;29;20482;-86
2021/01/03 07:35:10;;;;;;;23.10;14.40;;;1.00;99.90;;;;;;4866550;29;20465;-85
2021/01/03 07:37:37;;;;;;;21.37;15.63;;;1.00;99.90;;;;;;4867019;29;20462;-85
2021/01/03 07:40:10;;;;;;;24.90;17.30;;;1.00;99.90;;;;;;4866842;29;20446;-86
2021/01/03 07:42:57;;;;;;;19.90;14.53;;;1.00;99.90;;;;;;4867276;29;20493;-86
2021/01/03 07:45:35;;;;;;;22.50;16.00;;;1.10;99.90;;;;;;4865282;29;20490;-86
2021/01/03 07:48:01;;;;;;;20.80;14.70;;;1.10;99.90;;;;;;4867459;29;20465;-86
2021/01/03 07:50:30;;;;;;;20.00;14.47;;;1.10;99.90;;;;;;4867840;29;20550;-86
2021/01/03 07:52:55;;;;;;;18.03;12.97;;;1.10;99.90;;;;;;4866950;29;20489;-87
2021/01/03 07:55:22;;;;;;;16.90;12.80;;;1.20;99.90;;;;;;4869129;29;20455;-87
2021/01/03 07:57:58;;;;;;;21.37;14.57;;;1.20;99.90;;;;;;4868204;29;20743;-88
2021/01/03 08:00:36;;;;;;;16.90;13.30;;;1.10;99.90;;;;;;4867651;29;20450;-87
2021/01/03 08:03:08;;;;;;;16.27;12.27;;;1.20;99.90;;;;;;4868855;29;20465;-87
2021/01/03 08:05:41;;;;;;;16.30;12.17;;;1.20;99.90;;;;;;4867183;29;20465;-87
2021/01/03 08:08:13;;;;;;;17.53;12.70;;;1.30;99.90;;;;;;4866705;29;20453;-88
2021/01/03 08:10:39;;;;;;;17.03;12.43;;;1.20;99.90;;;;;;4867348;29;20450;-85
2021/01/03 08:13:15;;;;;;;17.57;12.07;;;1.20;99.90;;;;;;4868652;29;20543;-85
2021/01/03 08:15:42;;;;;;;18.97;12.83;;;1.30;99.90;;;;;;4853105;29;20480;-86
2021/01/03 08:18:15;;;;;;;17.77;11.60;;;1.30;99.90;;;;;;4866594;29;20454;-85
2021/01/03 08:21:28;;;;;;;17.37;12.37;;;1.40;99.90;;;;;;4865735;29;20658;-88
2021/01/03 08:24:03;;;;;;;17.67;12.80;;;1.40;99.90;;;;;;4864638;29;20513;-87
2021/01/03 08:29:38;;;;;;;19.50;13.50;;;1.50;99.90;;;;;;4867681;29;20513;-85
2021/01/03 08:32:11;;;;;;;18.50;12.97;;;1.60;99.90;;;;;;4864626;29;20485;-86
2021/01/03 08:34:42;;;;;;;16.93;12.30;;;1.60;99.90;;;;;;4868123;29;20790;-85
2021/01/03 08:37:24;;;;;;;18.90;13.83;;;1.60;99.90;;;;;;4864884;29;20466;-85
2021/01/03 08:39:52;;;;;;;16.93;12.73;;;1.40;99.90;;;;;;4867081;29;20442;-85
2021/01/03 08:42:39;;;;;;;18.10;12.30;;;1.50;99.90;;;;;;4866138;29;20502;-87
2021/01/03 08:45:07;;;;;;;17.30;12.67;;;1.50;99.90;;;;;;4865148;29;20454;-87
2021/01/03 08:47:38;;;;;;;17.27;11.80;;;1.60;99.90;;;;;;4866412;29;20472;-86
2021/01/03 08:50:15;;;;;;;17.33;12.70;;;1.60;99.90;;;;;;4868187;29;20450;-84
2021/01/03 08:52:41;;;;;;;15.70;11.27;;;1.60;99.90;;;;;;4866357;29;20486;-86
2021/01/03 08:55:14;;;;;;;17.77;13.37;;;1.70;99.90;;;;;;4867355;29;21001;-85
2021/01/03 08:57:42;;;;;;;16.97;14.23;;;1.70;99.90;;;;;;4863849;29;20293;-86
2021/01/03 09:00:14;;;;;;;17.97;13.30;;;1.70;99.90;;;;;;4867359;29;20458;-85
2021/01/03 09:02:44;;;;;;;16.23;12.50;;;1.80;99.90;;;;;;4866227;29;20494;-85
2021/01/03 09:05:14;;;;;;;19.70;13.30;;;1.90;99.90;;;;;;4862156;29;20549;-85
2021/01/03 09:07:41;;;;;;;16.93;11.17;;;1.90;99.90;;;;;;4864857;29;20548;-87
2021/01/03 09:10:07;;;;;;;19.73;13.17;;;1.90;99.90;;;;;;4862984;29;20458;-85
2021/01/03 09:12:41;;;;;;;18.10;12.93;;;1.70;99.90;;;;;;4865067;29;20484;-85
2021/01/03 09:15:26;;;;;;;20.13;13.30;;;1.70;99.90;;;;;;4863724;29;20446;-86
2021/01/03 09:18:21;;;;;;;22.50;13.90;;;1.70;99.90;;;;;;4868449;29;20454;-86
2021/01/03 09:20:47;;;;;;;19.43;12.70;;;1.80;99.90;;;;;;4868840;29;20442;-85
2021/01/03 09:23:19;;;;;;;18.83;13.20;;;1.80;99.90;;;;;;4868548;29;20857;-85
2021/01/03 09:25:52;;;;;;;15.53;11.37;;;2.00;99.90;;;;;;4865224;29;20458;-86
2021/01/03 09:28:26;;;;;;;17.67;12.60;;;2.10;99.90;;;;;;4867547;29;20510;-85
2021/01/03 09:31:09;;;;;;;17.70;12.27;;;2.10;99.90;;;;;;4868274;29;20570;-85
2021/01/03 09:33:35;;;;;;;16.67;11.93;;;1.90;99.90;;;;;;4865587;29;20469;-85
2021/01/03 09:36:27;;;;;;;17.27;12.40;;;1.90;99.90;;;;;;4870247;29;20462;-85
2021/01/03 09:39:07;;;;;;;16.77;11.87;;;1.90;99.90;;;;;;4863744;29;20567;-85
2021/01/03 09:41:40;;;;;;;17.23;12.90;;;1.90;99.90;;;;;;4868008;29;20454;-87
2021/01/03 09:44:23;;;;;;;20.30;14.10;;;2.00;99.90;;;;;;4866845;29;21008;-90
2021/01/03 09:47:00;;;;;;;17.30;13.00;;;1.80;99.90;;;;;;4865863;29;20463;-86
2021/01/03 09:49:46;;;;;;;16.73;12.23;;;1.80;99.90;;;;;;4869564;29;20457;-88
2021/01/03 09:52:15;;;;;;;18.23;13.47;;;1.80;99.90;;;;;;4864421;29;20854;-87
2021/01/03 09:55:02;;;;;;;17.33;12.90;;;1.80;99.90;;;;;;4865808;29;20449;-84
2021/01/03 09:57:42;;;;;;;18.13;13.90;;;1.80;99.90;;;;;;4865792;29;20553;-88
2021/01/03 10:00:21;;;;;;;18.37;13.37;;;1.80;99.90;;;;;;4863338;29;20470;-87
2021/01/03 10:02:47;;;;;;;19.70;12.90;;;1.70;99.90;;;;;;4859740;29;20513;-86
2021/01/03 10:05:26;;;;;;;16.87;11.40;;;1.70;99.90;;;;;;4863232;29;20725;-86
2021/01/03 10:07:57;;;;;;;15.93;11.83;;;1.70;99.90;;;;;;4863955;29;20470;-87
2021/01/03 10:10:42;;;;;;;19.63;12.77;;;1.80;99.90;;;;;;4860936;29;20613;-88
2021/01/03 10:13:09;;;;;;;19.33;13.20;;;1.80;99.90;;;;;;4863837;29;20548;-87
2021/01/03 10:15:35;;;;;;;19.43;12.67;;;1.80;99.90;;;;;;4864286;29;20438;-88
2021/01/03 10:18:06;;;;;;;16.03;11.50;;;1.90;99.90;;;;;;4862470;29;20463;-87
2021/01/03 10:20:35;;;;;;;17.53;12.20;;;1.80;99.90;;;;;;4865290;29;20860;-90
2021/01/03 10:23:00;;;;;;;18.57;12.50;;;1.70;99.90;;;;;;4866085;29;20457;-86
2021/01/03 10:25:26;;;;;;;18.70;13.27;;;1.80;99.90;;;;;;4862294;29;20446;-85
2021/01/03 10:28:14;;;;;;;19.83;13.07;;;1.80;99.90;;;;;;4864284;29;20225;-86
2021/01/03 10:30:41;;;;;;;17.20;12.40;;;2.00;99.90;;;;;;4862752;29;20525;-87
2021/01/03 10:33:08;;;;;;;19.93;14.00;;;2.10;99.90;;;;;;4864892;29;20987;-87
2021/01/03 10:35:34;;;;;;;20.70;13.27;;;2.10;99.90;;;;;;4863632;29;20449;-88
2021/01/03 10:38:01;;;;;;;19.17;12.83;;;2.20;99.90;;;;;;4864575;29;20968;-88
2021/01/03 10:40:26;;;;;;;18.67;12.70;;;2.30;99.90;;;;;;4860818;29;20481;-89
2021/01/03 10:43:03;;;;;;;19.77;13.60;;;2.40;99.90;;;;;;4863650;29;20546;-85
2021/01/03 10:45:29;;;;;;;18.60;13.57;;;2.60;99.90;;;;;;4859453;29;20273;-86
2021/01/03 10:47:55;;;;;;;18.87;13.03;;;2.50;99.90;;;;;;4865961;29;20463;-84
2021/01/03 10:50:23;;;;;;;15.40;12.73;;;2.40;99.90;;;;;;4864910;29;20490;-84
2021/01/03 10:52:49;;;;;;;17.40;13.20;;;2.30;99.90;;;;;;4865329;29;21691;-84
2021/01/03 10:55:18;;;;;;;18.07;13.20;;;2.10;99.90;;;;;;4861388;29;20458;-84
2021/01/03 10:57:43;;;;;;;16.00;11.60;;;2.30;99.90;;;;;;4865387;29;20439;-84
2021/01/03 11:00:11;;;;;;;17.10;12.03;;;2.70;99.90;;;;;;4863715;29;20507;-84
2021/01/03 11:02:36;;;;;;;13.60;11.10;;;3.10;99.90;;;;;;4863953;29;20224;-85
2021/01/03 11:05:04;;;;;;;16.30;11.83;;;3.40;99.90;;;;;;4863513;29;20804;-85
2021/01/03 11:07:30;;;;;;;13.77;11.40;;;3.70;99.90;;;;;;4862754;29;21004;-86
2021/01/03 11:09:56;;;;;;;16.97;12.17;;;3.60;99.90;;;;;;4862569;29;20452;-85
2021/01/03 11:12:22;;;;;;;15.90;11.53;;;3.40;99.90;;;;;;4862925;29;20228;-87
2021/01/03 11:14:47;;;;;;;14.90;12.07;;;3.30;99.90;;;;;;4864212;29;20189;-86
2021/01/03 11:17:15;;;;;;;17.37;12.73;;;3.20;99.90;;;;;;4862409;29;20715;-86
2021/01/03 11:19:41;;;;;;;14.73;10.33;;;3.00;99.90;;;;;;4863145;29;20590;-87
2021/01/03 11:22:10;;;;;;;16.93;12.20;;;3.30;99.90;;;;;;4864119;29;20473;-88
2021/01/03 11:24:37;;;;;;;14.70;11.77;;;3.30;99.90;;;;;;4864626;29;20454;-87
2021/01/03 11:27:05;;;;;;;14.23;11.27;;;3.30;99.90;;;;;;4862172;29;20797;-87
2021/01/03 11:29:31;;;;;;;16.10;11.70;;;3.30;99.90;;;;;;4861585;29;20518;-88
2021/01/03 11:31:59;;;;;;;15.20;11.47;;;3.50;99.90;;;;;;4863096;29;20781;-87
2021/01/03 11:34:27;;;;;;;14.30;11.77;;;3.80;99.90;;;;;;4863340;29;20276;-87
2021/01/03 11:36:57;;;;;;;17.10;13.03;;;3.70;99.90;;;;;;4863234;29;20457;-86
2021/01/03 11:39:25;;;;;;;15.07;11.87;;;3.50;99.90;;;;;;4863150;29;21223;-87
2021/01/03 11:41:52;;;;;;;15.73;11.67;;;3.40;99.90;;;;;;4860652;29;20457;-86
2021/01/03 11:44:19;;;;;;;17.10;13.00;;;3.40;99.90;;;;;;4862320;29;20438;-84
2021/01/03 11:46:46;;;;;;;24.20;18.30;;;3.30;99.90;;;;;;4860924;29;21090;-84
2021/01/03 11:49:12;;;;;;;51.20;41.40;;;3.30;99.90;;;;;;4861458;29;20453;-84
2021/01/03 11:51:38;;;;;;;17.27;12.53;;;3.30;99.90;;;;;;4862505;29;20500;-91
2021/01/03 11:54:05;;;;;;;16.17;12.63;;;3.20;99.90;;;;;;4862925;29;20890;-86
2021/01/03 11:56:30;;;;;;;16.30;12.23;;;3.00;99.90;;;;;;4862033;29;20505;-83
2021/01/03 11:58:56;;;;;;;17.90;13.07;;;3.10;99.90;;;;;;4851306;29;21511;-84
2021/01/03 12:01:24;;;;;;;15.10;11.77;;;3.00;99.90;;;;;;4862620;29;20268;-85
2021/01/03 12:03:50;;;;;;;19.20;12.90;;;2.90;99.90;;;;;;4863714;29;20270;-85
2021/01/03 12:06:18;;;;;;;17.90;13.10;;;3.00;99.90;;;;;;4860899;29;20722;-86
2021/01/03 12:08:44;;;;;;;16.37;11.90;;;2.90;99.90;;;;;;4860167;29;20459;-85
2021/01/03 12:11:16;;;;;;;17.40;13.00;;;2.90;99.90;;;;;;4861611;29;20643;-85
2021/01/03 12:13:48;;;;;;;15.70;12.30;;;2.90;99.90;;;;;;4859263;29;20451;-84
2021/01/03 12:16:26;;;;;;;16.30;12.00;;;2.90;99.90;;;;;;4861443;29;20474;-84
2021/01/03 12:18:52;;;;;;;17.67;11.97;;;2.90;99.90;;;;;;4860799;29;20591;-84
2021/01/03 12:21:31;;;;;;;16.20;12.00;;;2.90;99.90;;;;;;4861084;29;21269;-84
2021/01/03 12:23:58;;;;;;;18.27;13.50;;;2.90;99.90;;;;;;4860200;29;20539;-84
2021/01/03 12:26:32;;;;;;;19.17;13.30;;;2.90;99.90;;;;;;4859909;29;20873;-84
2021/01/03 12:28:58;;;;;;;18.47;13.20;;;2.80;99.90;;;;;;4862051;29;20469;-84
2021/01/03 12:31:31;;;;;;;18.00;12.90;;;2.80;99.90;;;;;;4861058;29;20579;-84
2021/01/03 12:33:56;;;;;;;16.90;13.03;;;2.80;99.90;;;;;;4859543;29;20196;-85
2021/01/03 12:36:22;;;;;;;20.80;13.50;;;2.90;99.90;;;;;;4860568;29;20451;-85
2021/01/03 12:38:48;;;;;;;18.77;14.20;;;2.90;99.90;;;;;;4860610;29;20191;-86
2021/01/03 12:41:18;;;;;;;16.90;12.17;;;2.90;99.90;;;;;;4852026;29;20666;-84
2021/01/03 12:43:47;;;;;;;16.80;12.53;;;3.00;99.90;;;;;;4856406;29;20191;-86
2021/01/03 12:46:12;;;;;;;20.43;13.40;;;3.10;99.90;;;;;;4856777;29;20463;-86
2021/01/03 12:48:39;;;;;;;16.77;12.40;;;2.90;99.90;;;;;;4860810;29;20446;-87
2021/01/03 12:51:05;;;;;;;17.67;13.10;;;2.60;99.90;;;;;;4860316;29;20297;-85
2021/01/03 12:53:31;;;;;;;20.60;15.30;;;2.60;99.90;;;;;;4859102;29;20446;-86
2021/01/03 12:55:56;;;;;;;17.80;12.77;;;2.60;99.90;;;;;;4859953;29;20412;-84
2021/01/03 12:58:22;;;;;;;18.43;13.57;;;2.60;99.90;;;;;;4860971;29;20186;-87
2021/01/03 13:00:48;;;;;;;23.13;16.73;;;2.70;99.90;;;;;;4858275;29;20202;-84
2021/01/03 13:03:15;;;;;;;20.23;14.07;;;2.70;99.90;;;;;;4859470;29;20189;-84
2021/01/03 13:05:42;;;;;;;20.83;15.73;;;2.70;99.90;;;;;;4858125;29;20201;-84
2021/01/03 13:08:07;;;;;;;16.90;12.83;;;2.70;99.90;;;;;;4861328;29;20435;-84
2021/01/03 13:10:33;;;;;;;18.40;12.80;;;2.60;99.90;;;;;;4857604;29;20522;-84
2021/01/03 13:12:59;;;;;;;20.97;14.00;;;2.60;99.90;;;;;;4862060;29;20614;-85